Time;durP1;ratioP1;P1;durP2;ratioP2;P2;SDS_P1;SDS_P2;PMS_P1;PMS_P2;Temp;Humidity;BMP_temperature;BMP_pressure;BME280_temperature;BME280_humidity;BME280_pressure;Samples;Min_cycle;Max_cycle;Signal;HPM_P1;HPM_P2
2023/01/09 00:00:13;;;;;;;3.38;2.88;;;6.60;99.90;;;;;;5068704;28;20020;-82
2023/01/09 00:02:39;;;;;;;7.95;3.33;;;6.70;99.90;;;;;;5064880;28;20428;-80
2023/01/09 00:05:06;;;;;;;5.53;3.45;;;6.70;99.90;;;;;;5063070;28;20036;-81
2023/01/09 00:07:32;;;;;;;4.15;3.25;;;6.70;99.90;;;;;;5064678;28;20024;-80
2023/01/09 00:09:57;;;;;;;4.55;2.95;;;6.70;99.90;;;;;;5074204;28;20063;-81
2023/01/09 00:12:23;;;;;;;5.63;3.00;;;6.60;99.90;;;;;;5067642;28;20033;-80
2023/01/09 00:14:49;;;;;;;3.08;2.60;;;6.60;99.90;;;;;;5067393;28;20461;-80
2023/01/09 00:17:14;;;;;;;4.03;3.60;;;6.60;99.90;;;;;;5067659;28;20024;-81
2023/01/09 00:19:40;;;;;;;4.07;3.13;;;6.60;99.90;;;;;;5069614;28;20024;-81
2023/01/09 00:22:08;;;;;;;4.28;3.03;;;6.70;99.90;;;;;;5065679;28;20025;-81
2023/01/09 00:24:36;;;;;;;4.53;3.20;;;6.60;99.90;;;;;;5066886;28;20499;-80
2023/01/09 00:27:03;;;;;;;5.53;3.53;;;6.60;99.90;;;;;;5068647;28;20199;-81
2023/01/09 00:29:28;;;;;;;4.40;3.00;;;6.70;99.90;;;;;;5066681;28;20041;-81
2023/01/09 00:31:54;;;;;;;4.80;3.20;;;6.70;99.90;;;;;;5072183;28;20031;-81
2023/01/09 00:34:19;;;;;;;9.23;2.80;;;6.70;99.90;;;;;;5064970;28;20025;-81
2023/01/09 00:36:45;;;;;;;3.55;3.10;;;6.70;99.90;;;;;;5068406;28;20067;-81
2023/01/09 00:39:11;;;;;;;3.05;2.45;;;6.70;99.90;;;;;;5075062;28;20037;-81
2023/01/09 00:41:48;;;;;;;4.47;2.88;;;6.70;99.90;;;;;;5074791;28;20020;-81
2023/01/09 00:44:17;;;;;;;3.00;2.65;;;6.70;99.90;;;;;;5070108;28;20536;-80
2023/01/09 00:46:50;;;;;;;4.22;2.92;;;6.70;99.90;;;;;;5068278;28;20031;-81
2023/01/09 00:49:17;;;;;;;3.22;2.55;;;6.70;99.90;;;;;;5065389;28;20032;-81
2023/01/09 00:51:43;;;;;;;5.55;2.72;;;6.70;99.90;;;;;;5075963;28;20369;-81
2023/01/09 00:54:12;;;;;;;2.83;2.20;;;6.70;99.90;;;;;;5070739;28;20077;-81
2023/01/09 00:56:39;;;;;;;2.97;2.55;;;6.60;99.90;;;;;;5068510;28;20032;-81
2023/01/09 00:59:05;;;;;;;3.33;2.47;;;6.50;99.90;;;;;;5070356;28;20036;-81
2023/01/09 01:01:31;;;;;;;3.47;2.58;;;6.50;99.90;;;;;;5068133;28;20026;-81
2023/01/09 01:03:57;;;;;;;2.47;2.10;;;6.40;99.90;;;;;;5069048;28;20111;-81
2023/01/09 01:09:06;;;;;;;2.60;2.00;;;6.30;99.90;;;;;;5069074;28;20114;-81
2023/01/09 01:11:33;;;;;;;4.45;2.97;;;6.20;99.90;;;;;;5068393;28;20024;-81
2023/01/09 01:14:02;;;;;;;5.45;2.88;;;6.20;99.90;;;;;;5069066;28;20033;-81
2023/01/09 01:16:27;;;;;;;5.95;3.22;;;6.20;99.90;;;;;;5058161;28;20033;-81
2023/01/09 01:18:53;;;;;;;4.50;3.58;;;6.20;99.90;;;;;;5077407;28;20036;-81
2023/01/09 01:21:18;;;;;;;5.95;3.88;;;6.30;99.90;;;;;;5071431;28;20453;-81
2023/01/09 01:23:44;;;;;;;7.13;3.67;;;6.40;99.90;;;;;;5070339;28;20389;-81
2023/01/09 01:26:14;;;;;;;4.95;3.58;;;6.40;99.90;;;;;;5070546;28;20025;-81
2023/01/09 01:28:40;;;;;;;3.30;3.00;;;6.40;99.90;;;;;;5070570;28;20052;-81
2023/01/09 01:31:06;;;;;;;5.95;3.55;;;6.50;99.90;;;;;;5074768;28;20039;-81
2023/01/09 01:33:33;;;;;;;5.93;4.55;;;6.60;99.90;;;;;;5075264;28;20022;-81
2023/01/09 01:36:00;;;;;;;5.40;3.28;;;6.60;99.90;;;;;;5075667;28;20370;-81
2023/01/09 01:38:27;;;;;;;7.10;4.30;;;6.60;99.90;;;;;;5073975;28;20093;-81
2023/01/09 01:40:53;;;;;;;5.60;4.20;;;6.60;99.90;;;;;;5070378;28;20343;-80
2023/01/09 01:43:19;;;;;;;5.88;4.05;;;6.70;99.90;;;;;;5070980;28;20025;-81
2023/01/09 01:45:44;;;;;;;5.57;4.32;;;6.70;99.90;;;;;;5071206;28;20385;-81
2023/01/09 01:48:16;;;;;;;6.35;4.65;;;6.70;99.90;;;;;;5075127;28;20039;-81
2023/01/09 01:51:01;;;;;;;5.70;4.15;;;6.80;99.90;;;;;;5075776;28;20057;-81
2023/01/09 01:53:52;;;;;;;7.95;4.68;;;6.80;99.90;;;;;;5068084;28;20016;-81
2023/01/09 01:56:43;;;;;;;7.45;4.35;;;6.80;99.90;;;;;;5061168;28;20028;-81
2023/01/09 01:59:20;;;;;;;5.95;4.55;;;6.80;99.90;;;;;;5069685;28;20024;-81
2023/01/09 02:01:49;;;;;;;8.57;4.95;;;6.80;99.90;;;;;;5069187;28;20438;-81
2023/01/09 02:04:15;;;;;;;6.88;5.10;;;6.80;99.90;;;;;;5071405;28;20012;-81
2023/01/09 02:06:43;;;;;;;6.82;4.82;;;6.80;99.90;;;;;;5076835;28;20060;-81
2023/01/09 02:09:12;;;;;;;10.65;5.43;;;6.80;99.90;;;;;;5071288;28;20036;-81
2023/01/09 02:11:44;;;;;;;10.75;5.53;;;6.90;99.90;;;;;;5073601;28;20089;-81
2023/01/09 02:14:10;;;;;;;12.23;5.30;;;6.90;99.90;;;;;;5067940;28;20586;-81
2023/01/09 02:17:00;;;;;;;5.72;4.80;;;6.90;99.90;;;;;;5070300;28;20485;-81
2023/01/09 02:19:53;;;;;;;10.85;4.78;;;6.90;99.90;;;;;;5070672;28;20043;-81
2023/01/09 02:22:57;;;;;;;6.28;5.32;;;6.90;99.90;;;;;;5074446;28;20042;-82
2023/01/09 02:26:01;;;;;;;6.75;4.28;;;6.90;99.90;;;;;;5072676;28;20033;-81
2023/01/09 02:29:06;;;;;;;7.05;5.35;;;6.90;99.90;;;;;;5069021;28;20048;-81
2023/01/09 02:31:50;;;;;;;5.88;5.18;;;7.00;99.90;;;;;;5067947;28;20020;-81
2023/01/09 02:34:45;;;;;;;7.97;5.97;;;6.90;99.90;;;;;;5075113;28;20028;-82
2023/01/09 02:37:48;;;;;;;7.10;5.40;;;7.00;99.90;;;;;;5072876;28;20060;-81
2023/01/09 02:40:21;;;;;;;7.03;5.85;;;6.90;99.90;;;;;;5066688;28;20448;-80
2023/01/09 02:42:47;;;;;;;8.02;6.05;;;6.90;99.90;;;;;;5069354;28;20012;-81
2023/01/09 02:45:14;;;;;;;10.45;6.20;;;6.90;99.90;;;;;;5070093;28;20629;-80
2023/01/09 02:47:43;;;;;;;11.13;6.68;;;6.90;99.90;;;;;;5069190;28;20035;-81
2023/01/09 02:50:20;;;;;;;15.27;8.02;;;6.90;99.90;;;;;;5068369;28;20037;-81
2023/01/09 02:52:51;;;;;;;16.98;7.68;;;6.90;99.90;;;;;;5067645;28;20130;-81
2023/01/09 02:56:04;;;;;;;11.90;7.07;;;6.90;99.90;;;;;;5065245;28;20027;-81
2023/01/09 02:58:42;;;;;;;11.27;7.53;;;6.90;99.90;;;;;;5069654;28;20044;-84
2023/01/09 03:01:13;;;;;;;13.00;7.50;;;6.90;99.90;;;;;;5071244;28;20024;-82
2023/01/09 03:03:58;;;;;;;12.93;8.35;;;6.80;99.90;;;;;;5072630;28;20127;-83
2023/01/09 03:06:35;;;;;;;12.13;7.95;;;6.80;99.90;;;;;;5073482;28;20048;-82
2023/01/09 03:09:10;;;;;;;13.90;8.52;;;6.80;99.90;;;;;;5071483;28;20058;-82
2023/01/09 03:11:39;;;;;;;;;;;6.80;99.90;;;;;;5072076;28;20032;-83
2023/01/09 03:14:11;;;;;;;12.13;9.23;;;6.80;99.90;;;;;;5076023;28;19939;-83
2023/01/09 03:16:38;;;;;;;14.70;9.52;;;6.70;99.90;;;;;;5072719;28;20392;-85
2023/01/09 03:19:07;;;;;;;21.45;11.45;;;6.70;99.90;;;;;;5066783;28;20123;-84
2023/01/09 03:21:34;;;;;;;14.45;10.85;;;6.70;99.90;;;;;;5068280;28;20115;-84
2023/01/09 03:24:01;;;;;;;13.57;9.75;;;6.70;99.90;;;;;;5074700;28;20137;-84
2023/01/09 03:26:29;;;;;;;13.82;9.95;;;6.70;99.90;;;;;;5072344;28;20025;-85
2023/01/09 03:28:56;;;;;;;13.38;9.23;;;6.70;99.90;;;;;;5070063;28;20413;-85
2023/01/09 03:31:22;;;;;;;14.30;9.02;;;6.70;99.90;;;;;;5076538;28;20027;-86
2023/01/09 03:33:47;;;;;;;18.63;10.73;;;6.60;99.90;;;;;;5071663;28;20024;-85
2023/01/09 03:36:15;;;;;;;16.90;9.43;;;6.70;99.90;;;;;;5067339;28;20060;-86
2023/01/09 03:38:41;;;;;;;22.02;10.18;;;6.70;99.90;;;;;;5073101;28;20040;-89
2023/01/09 03:41:06;;;;;;;11.18;8.70;;;6.70;99.90;;;;;;5071947;28;20032;-86
2023/01/09 03:43:32;;;;;;;11.40;8.50;;;6.70;99.90;;;;;;5070081;28;20485;-85
2023/01/09 03:45:58;;;;;;;15.68;8.98;;;6.70;99.90;;;;;;5070978;28;20028;-86
2023/01/09 03:48:24;;;;;;;11.57;8.93;;;6.70;99.90;;;;;;5069661;28;20588;-87
2023/01/09 03:50:51;;;;;;;8.93;7.68;;;6.70;99.90;;;;;;5067534;28;20481;-86
2023/01/09 03:53:17;;;;;;;14.93;8.00;;;6.70;99.90;;;;;;5067796;28;20028;-86
2023/01/09 03:55:45;;;;;;;10.80;7.80;;;6.70;99.90;;;;;;5067242;28;20071;-86
2023/01/09 03:58:11;;;;;;;13.55;8.98;;;6.70;99.90;;;;;;5067540;28;20115;-86
2023/01/09 04:00:38;;;;;;;10.60;7.75;;;6.70;99.90;;;;;;5065774;28;20124;-86
2023/01/09 04:03:06;;;;;;;9.57;7.15;;;6.60;99.90;;;;;;5070631;28;20032;-85
2023/01/09 04:05:32;;;;;;;10.75;7.68;;;6.60;99.90;;;;;;5068692;28;20033;-85
2023/01/09 04:07:57;;;;;;;10.35;7.28;;;6.60;99.90;;;;;;5072186;28;20500;-86
2023/01/09 04:10:23;;;;;;;14.15;8.60;;;6.60;99.90;;;;;;5068661;28;20261;-85
2023/01/09 04:12:49;;;;;;;7.82;6.40;;;6.60;99.90;;;;;;5073252;28;20472;-86
2023/01/09 04:15:14;;;;;;;9.38;6.25;;;6.60;99.90;;;;;;5074531;28;20166;-85
2023/01/09 04:17:40;;;;;;;11.52;7.80;;;6.60;99.90;;;;;;5072179;28;20412;-85
2023/01/09 04:20:06;;;;;;;9.52;6.88;;;6.60;99.90;;;;;;5072379;28;20024;-86
2023/01/09 04:22:32;;;;;;;9.35;7.20;;;6.70;99.90;;;;;;5072153;28;20029;-86
2023/01/09 04:24:57;;;;;;;8.50;6.32;;;6.70;99.90;;;;;;5072398;28;20093;-86
2023/01/09 04:27:23;;;;;;;9.50;7.20;;;6.70;99.90;;;;;;5070289;28;20045;-85
2023/01/09 04:29:50;;;;;;;8.77;6.72;;;6.70;99.90;;;;;;5079024;28;20044;-86
2023/01/09 04:32:15;;;;;;;9.43;6.57;;;6.70;99.90;;;;;;5066590;28;20358;-85
2023/01/09 04:34:41;;;;;;;10.00;8.18;;;6.70;99.90;;;;;;5068783;28;20035;-85
2023/01/09 04:37:07;;;;;;;7.15;6.18;;;6.70;99.90;;;;;;5068918;28;20028;-85
2023/01/09 04:39:32;;;;;;;7.57;5.95;;;6.70;99.90;;;;;;5066681;28;20024;-85
2023/01/09 04:41:58;;;;;;;10.95;8.15;;;6.70;99.90;;;;;;5061324;28;20508;-85
2023/01/09 04:44:27;;;;;;;10.52;7.97;;;6.70;99.90;;;;;;5069465;28;20033;-85
2023/01/09 04:46:54;;;;;;;11.45;7.85;;;6.70;99.90;;;;;;5074240;28;20037;-85
2023/01/09 04:49:20;;;;;;;16.48;7.55;;;6.70;99.90;;;;;;5071622;28;20028;-85
2023/01/09 04:51:46;;;;;;;9.45;7.38;;;6.70;99.90;;;;;;5063639;28;20047;-85
2023/01/09 04:54:12;;;;;;;8.40;6.97;;;6.70;99.90;;;;;;5070624;28;20020;-85
2023/01/09 04:56:37;;;;;;;11.77;7.20;;;6.70;99.90;;;;;;5066203;28;20052;-85
2023/01/09 04:59:04;;;;;;;13.75;7.60;;;6.70;99.90;;;;;;5071535;28;20024;-85
2023/01/09 05:01:30;;;;;;;9.15;7.55;;;6.70;99.90;;;;;;5063984;28;20108;-86
2023/01/09 05:03:56;;;;;;;8.35;7.03;;;6.70;99.90;;;;;;5077019;28;20123;-85
2023/01/09 05:06:21;;;;;;;11.88;7.10;;;6.70;99.90;;;;;;5066615;28;20453;-85
2023/01/09 05:08:47;;;;;;;8.25;7.22;;;6.70;99.90;;;;;;5065741;28;20040;-85
2023/01/09 05:11:13;;;;;;;9.93;7.20;;;6.70;99.90;;;;;;5062576;28;20024;-86
2023/01/09 05:13:38;;;;;;;8.45;6.82;;;6.70;99.90;;;;;;5069950;28;20185;-85
2023/01/09 05:16:04;;;;;;;7.15;5.85;;;6.70;99.90;;;;;;5070433;28;20078;-85
2023/01/09 05:18:30;;;;;;;7.05;5.32;;;6.70;99.90;;;;;;5069103;28;20033;-85
2023/01/09 05:20:55;;;;;;;7.38;5.55;;;6.70;99.90;;;;;;5073197;28;20033;-85
2023/01/09 05:23:21;;;;;;;6.70;5.72;;;6.70;99.90;;;;;;5068647;28;20024;-85
2023/01/09 05:25:46;;;;;;;10.85;7.05;;;6.70;99.90;;;;;;5069046;28;20077;-85
2023/01/09 05:28:12;;;;;;;9.57;8.02;;;6.70;99.90;;;;;;5064810;28;20279;-85
2023/01/09 05:30:38;;;;;;;9.20;7.32;;;6.70;99.90;;;;;;5067672;28;20094;-85
2023/01/09 05:33:05;;;;;;;11.00;7.50;;;6.70;99.90;;;;;;5065245;28;20052;-85
2023/01/09 05:35:30;;;;;;;8.50;6.97;;;6.70;99.90;;;;;;5065202;28;20131;-85
2023/01/09 05:37:56;;;;;;;10.30;7.90;;;6.70;99.90;;;;;;5064818;28;20175;-86
2023/01/09 05:40:23;;;;;;;8.52;7.13;;;6.70;99.90;;;;;;5069891;28;20465;-85
2023/01/09 05:42:48;;;;;;;11.55;7.57;;;6.70;99.90;;;;;;5060251;28;20029;-85
2023/01/09 05:45:14;;;;;;;10.63;6.43;;;6.70;99.90;;;;;;5068293;28;20029;-85
2023/01/09 05:47:39;;;;;;;8.13;6.65;;;6.70;99.90;;;;;;5065400;28;20058;-85
2023/01/09 05:50:05;;;;;;;7.57;6.45;;;6.70;99.90;;;;;;5081020;28;20061;-85
2023/01/09 05:52:31;;;;;;;6.72;5.75;;;6.70;99.90;;;;;;5077575;28;20116;-85
2023/01/09 05:54:57;;;;;;;8.75;7.15;;;6.70;99.90;;;;;;5066263;28;20032;-85
2023/01/09 05:57:22;;;;;;;7.45;6.53;;;6.70;99.90;;;;;;5066813;28;20033;-85
2023/01/09 05:59:48;;;;;;;7.10;5.90;;;6.70;99.90;;;;;;5064178;28;20120;-85
2023/01/09 06:02:13;;;;;;;6.53;5.00;;;6.70;99.90;;;;;;5064862;28;20816;-85
2023/01/09 06:04:39;;;;;;;7.22;5.35;;;6.70;99.90;;;;;;5066658;28;20385;-85
2023/01/09 06:07:05;;;;;;;7.53;4.60;;;6.80;99.90;;;;;;5062824;28;20029;-85
2023/01/09 06:09:30;;;;;;;4.75;3.85;;;6.80;99.90;;;;;;5073746;28;20382;-85
2023/01/09 06:11:56;;;;;;;5.00;4.22;;;6.80;99.90;;;;;;5065351;28;20033;-85
2023/01/09 06:14:22;;;;;;;4.35;3.95;;;6.80;99.90;;;;;;5067677;28;20028;-85
2023/01/09 06:16:48;;;;;;;3.95;3.55;;;6.90;99.90;;;;;;5072522;28;20021;-85
2023/01/09 06:19:14;;;;;;;5.25;4.75;;;6.90;99.90;;;;;;5070266;28;20024;-85
2023/01/09 06:21:40;;;;;;;5.45;4.45;;;7.00;99.90;;;;;;5073617;28;20439;-85
2023/01/09 06:24:06;;;;;;;7.07;4.28;;;7.00;99.90;;;;;;5068375;28;20029;-85
2023/01/09 06:26:31;;;;;;;4.70;4.05;;;7.00;99.90;;;;;;5068618;28;20055;-85
2023/01/09 06:28:59;;;;;;;4.50;3.92;;;7.00;99.90;;;;;;5067323;28;20583;-85
2023/01/09 06:31:25;;;;;;;4.13;3.72;;;7.00;99.90;;;;;;5068126;28;20447;-84
2023/01/09 06:33:51;;;;;;;5.65;4.35;;;7.00;99.90;;;;;;5068381;28;20031;-87
2023/01/09 06:36:17;;;;;;;8.50;5.22;;;7.00;99.90;;;;;;5070203;28;20032;-84
2023/01/09 06:38:42;;;;;;;6.18;3.53;;;7.10;99.90;;;;;;5071705;28;20052;-85
2023/01/09 06:41:08;;;;;;;11.02;5.47;;;7.10;99.90;;;;;;5071373;28;20021;-84
2023/01/09 06:43:34;;;;;;;4.60;3.67;;;7.10;99.90;;;;;;5072908;28;20028;-86
2023/01/09 06:46:00;;;;;;;5.05;3.90;;;7.10;99.90;;;;;;5071299;28;20032;-86
2023/01/09 06:48:25;;;;;;;3.42;2.88;;;7.10;99.90;;;;;;5066636;28;20132;-84
2023/01/09 06:50:51;;;;;;;5.00;3.03;;;7.10;99.90;;;;;;5069449;28;20035;-85
2023/01/09 06:53:17;;;;;;;7.57;2.85;;;7.10;99.90;;;;;;5077731;28;20039;-85
2023/01/09 06:55:44;;;;;;;9.18;3.38;;;7.10;99.90;;;;;;5072740;28;20497;-85
2023/01/09 06:58:10;;;;;;;3.55;2.28;;;7.10;99.90;;;;;;5073282;28;20413;-86
2023/01/09 07:00:35;;;;;;;2.88;2.30;;;7.10;99.90;;;;;;5065978;28;20032;-85
2023/01/09 07:03:01;;;;;;;2.25;2.08;;;7.10;99.90;;;;;;5070382;28;20025;-84
2023/01/09 07:05:27;;;;;;;2.28;2.05;;;7.10;99.90;;;;;;5069277;28;20481;-87
2023/01/09 07:07:53;;;;;;;2.33;2.13;;;7.10;99.90;;;;;;5068418;28;20116;-84
2023/01/09 07:10:20;;;;;;;2.90;1.88;;;7.10;99.90;;;;;;5069355;28;20082;-84
2023/01/09 07:12:45;;;;;;;2.33;1.80;;;7.10;99.90;;;;;;5072511;28;20089;-84
2023/01/09 07:15:11;;;;;;;1.98;1.70;;;7.10;99.90;;;;;;5069142;28;20024;-83
2023/01/09 07:17:37;;;;;;;5.28;1.75;;;7.00;99.90;;;;;;5071403;28;20350;-87
2023/01/09 07:20:03;;;;;;;7.07;2.40;;;7.00;99.90;;;;;;5077448;28;20397;-84
2023/01/09 07:22:28;;;;;;;4.47;2.05;;;7.00;99.90;;;;;;5062959;28;20028;-83
2023/01/09 07:24:54;;;;;;;2.08;1.67;;;6.90;99.90;;;;;;5067664;28;20248;-85
2023/01/09 07:27:21;;;;;;;1.63;1.40;;;6.90;99.90;;;;;;5070583;28;20098;-83
2023/01/09 07:29:46;;;;;;;1.65;1.50;;;6.90;99.90;;;;;;5064670;28;20086;-83
2023/01/09 07:32:12;;;;;;;1.50;1.40;;;6.80;99.90;;;;;;5067860;28;20413;-84
2023/01/09 07:34:37;;;;;;;7.32;3.08;;;6.80;99.90;;;;;;5065510;28;20033;-86
2023/01/09 07:37:03;;;;;;;2.13;1.40;;;6.80;99.90;;;;;;5068274;28;20020;-84
2023/01/09 07:39:29;;;;;;;3.60;2.60;;;6.90;99.90;;;;;;5066100;28;20024;-83
2023/01/09 07:41:55;;;;;;;6.28;3.40;;;6.80;99.90;;;;;;5068577;28;20032;-83
2023/01/09 07:44:21;;;;;;;5.43;3.53;;;6.80;99.90;;;;;;5064030;28;20484;-84
2023/01/09 07:46:47;;;;;;;4.97;2.95;;;6.80;99.90;;;;;;5067552;28;20039;-83
2023/01/09 07:49:12;;;;;;;5.30;2.60;;;6.80;99.90;;;;;;5061241;28;20037;-83
2023/01/09 07:51:41;;;;;;;4.22;2.13;;;6.80;99.90;;;;;;5066583;28;20047;-84
2023/01/09 07:54:11;;;;;;;4.25;1.70;;;6.80;99.90;;;;;;5067453;28;20028;-84
2023/01/09 07:56:38;;;;;;;2.30;1.42;;;6.80;99.90;;;;;;5068515;28;20480;-83
2023/01/09 07:59:07;;;;;;;2.42;1.50;;;6.90;99.90;;;;;;5065595;28;20465;-82
2023/01/09 08:01:32;;;;;;;6.53;1.15;;;6.90;99.90;;;;;;5067078;28;20384;-83
2023/01/09 08:03:58;;;;;;;2.35;1.40;;;6.90;99.90;;;;;;5066522;28;20055;-82
2023/01/09 08:06:23;;;;;;;4.88;1.40;;;6.90;99.90;;;;;;5065558;28;20025;-81
2023/01/09 08:08:49;;;;;;;2.78;1.90;;;6.80;99.90;;;;;;5067202;28;20037;-83
2023/01/09 08:11:15;;;;;;;5.35;2.10;;;6.90;99.90;;;;;;5065715;28;20135;-84
2023/01/09 08:13:40;;;;;;;3.03;2.10;;;6.90;99.90;;;;;;5067166;28;20035;-83
2023/01/09 08:16:06;;;;;;;1.75;1.65;;;6.80;99.90;;;;;;5065794;28;20028;-83
2023/01/09 08:18:32;;;;;;;4.53;1.88;;;6.80;99.90;;;;;;5066853;28;20020;-83
2023/01/09 08:20:57;;;;;;;7.55;1.75;;;6.90;99.90;;;;;;5064432;28;20117;-87
2023/01/09 08:23:23;;;;;;;5.25;2.50;;;6.90;99.90;;;;;;5064654;28;20040;-82
2023/01/09 08:25:49;;;;;;;5.60;1.58;;;6.80;99.90;;;;;;5069346;28;20420;-85
2023/01/09 08:28:14;;;;;;;6.22;2.45;;;6.90;99.90;;;;;;5063611;28;20577;-83
2023/01/09 08:30:40;;;;;;;10.05;2.13;;;6.90;99.90;;;;;;5067303;28;20472;-84
2023/01/09 08:33:05;;;;;;;10.93;2.25;;;6.90;99.90;;;;;;5067055;28;20024;-82
2023/01/09 08:35:31;;;;;;;4.85;3.05;;;6.80;99.90;;;;;;5067214;28;20054;-83
2023/01/09 08:37:56;;;;;;;6.80;1.73;;;6.80;99.90;;;;;;5067312;28;20384;-83
2023/01/09 08:40:22;;;;;;;6.28;1.05;;;6.80;99.90;;;;;;5067349;28;20029;-85
2023/01/09 08:48:16;;;;;;;3.22;1.52;;;6.80;99.90;;;;;;5070447;28;20495;-82
2023/01/09 08:50:42;;;;;;;3.45;1.25;;;6.80;99.90;;;;;;5071402;28;20020;-83
2023/01/09 08:53:08;;;;;;;3.42;1.30;;;6.80;99.90;;;;;;5074492;28;20443;-83
2023/01/09 08:55:34;;;;;;;1.75;1.10;;;6.80;99.90;;;;;;5075425;28;20029;-82
2023/01/09 08:58:00;;;;;;;10.60;3.53;;;6.80;99.90;;;;;;5080737;28;20028;-82
2023/01/09 09:00:26;;;;;;;3.33;1.38;;;6.80;99.90;;;;;;5077579;28;20111;-82
2023/01/09 09:02:53;;;;;;;2.03;1.10;;;6.80;99.90;;;;;;5070814;28;20028;-83
2023/01/09 09:05:20;;;;;;;3.47;1.92;;;6.80;99.90;;;;;;5070331;28;20032;-82
2023/01/09 09:07:53;;;;;;;3.20;1.30;;;6.80;99.90;;;;;;5070300;28;20105;-84
2023/01/09 09:10:20;;;;;;;4.78;1.30;;;6.80;99.90;;;;;;5081597;28;20465;-81
2023/01/09 09:12:50;;;;;;;3.38;1.80;;;6.80;99.90;;;;;;5094616;28;20507;-84
2023/01/09 09:15:22;;;;;;;3.50;1.63;;;6.80;99.90;;;;;;5070232;28;20036;-82
2023/01/09 09:17:53;;;;;;;2.90;1.30;;;6.80;99.90;;;;;;5069993;28;20032;-83
2023/01/09 09:20:20;;;;;;;1.92;1.20;;;6.70;99.90;;;;;;5069012;28;20049;-82
2023/01/09 09:22:46;;;;;;;2.72;1.63;;;6.80;99.90;;;;;;5082399;28;20447;-82
2023/01/09 09:25:12;;;;;;;7.65;1.35;;;6.80;99.90;;;;;;5088742;28;20108;-82
2023/01/09 09:27:37;;;;;;;3.10;1.38;;;6.80;99.90;;;;;;5078217;28;20064;-82
2023/01/09 09:30:05;;;;;;;2.08;1.23;;;6.70;99.90;;;;;;5071117;28;20056;-83
2023/01/09 09:32:31;;;;;;;4.10;1.23;;;6.80;99.90;;;;;;5066147;28;20028;-84
2023/01/09 09:34:57;;;;;;;4.75;1.65;;;6.80;99.90;;;;;;5078215;28;20063;-82
2023/01/09 09:37:23;;;;;;;4.70;1.38;;;6.80;99.90;;;;;;5072555;28;20051;-81
2023/01/09 09:39:48;;;;;;;3.05;1.30;;;6.80;99.90;;;;;;5071254;28;20032;-86
2023/01/09 09:45:57;;;;;;;13.20;3.88;;;6.80;99.90;;;;;;5067157;28;20124;-81
2023/01/09 09:48:41;;;;;;;6.22;1.63;;;6.80;99.90;;;;;;5072840;28;20592;-82
2023/01/09 09:51:31;;;;;;;9.65;2.38;;;6.70;99.90;;;;;;5074950;28;20032;-84
2023/01/09 09:53:59;;;;;;;8.32;2.00;;;6.70;99.90;;;;;;5074326;28;20027;-84
2023/01/09 09:56:26;;;;;;;8.32;2.85;;;6.70;99.90;;;;;;5073299;28;20082;-81
2023/01/09 09:59:02;;;;;;;8.82;2.20;;;6.70;99.90;;;;;;5070222;28;20122;-83
2023/01/09 10:01:32;;;;;;;;;;;6.70;99.90;;;;;;5071074;28;20024;-84
2023/01/09 10:04:00;;;;;;;8.55;2.03;;;6.70;99.90;;;;;;5069076;28;19912;-84
2023/01/09 10:06:27;;;;;;;14.02;3.53;;;6.60;99.90;;;;;;5067677;28;20032;-84
2023/01/09 10:09:15;;;;;;;6.97;1.73;;;6.70;99.90;;;;;;5068267;28;20570;-84
2023/01/09 10:12:00;;;;;;;5.65;1.85;;;6.70;99.90;;;;;;5080094;28;20028;-85
2023/01/09 10:14:26;;;;;;;7.90;2.75;;;6.70;99.90;;;;;;5064636;28;20549;-82
2023/01/09 10:17:25;;;;;;;15.45;2.72;;;6.70;99.90;;;;;;5078615;28;20036;-84
2023/01/09 10:20:19;;;;;;;9.85;2.13;;;6.70;99.90;;;;;;5073500;28;20063;-83
2023/01/09 10:22:53;;;;;;;7.25;2.45;;;6.70;99.90;;;;;;5064769;28;20016;-84
2023/01/09 10:25:41;;;;;;;15.20;3.13;;;6.80;99.90;;;;;;5067948;28;20020;-84
2023/01/09 10:28:24;;;;;;;7.95;2.45;;;6.80;99.90;;;;;;5071556;28;20048;-81
2023/01/09 10:31:04;;;;;;;24.67;9.57;;;6.70;99.90;;;;;;5077744;28;20029;-85
2023/01/09 10:34:07;;;;;;;10.35;2.30;;;6.80;99.90;;;;;;5067155;28;20312;-83
2023/01/09 10:37:01;;;;;;;10.57;3.13;;;6.80;99.90;;;;;;5083294;28;20119;-82
2023/01/09 10:39:40;;;;;;;13.07;6.63;;;6.90;99.90;;;;;;5072192;28;20119;-82
2023/01/09 10:42:15;;;;;;;13.13;3.17;;;6.90;99.90;;;;;;5058638;28;20036;-82
2023/01/09 10:45:04;;;;;;;8.88;3.35;;;6.90;99.90;;;;;;5068574;28;20032;-83
2023/01/09 10:47:34;;;;;;;5.68;2.78;;;6.90;99.90;;;;;;5062646;28;20036;-82
2023/01/09 10:50:12;;;;;;;6.40;2.40;;;6.90;99.90;;;;;;5071404;28;20048;-82
2023/01/09 10:52:41;;;;;;;33.63;6.82;;;6.90;99.90;;;;;;5061671;28;20080;-81
2023/01/09 10:55:31;;;;;;;9.50;2.45;;;6.90;99.90;;;;;;5068145;28;20381;-82
2023/01/09 10:58:00;;;;;;;14.60;3.85;;;7.00;99.90;;;;;;5069618;28;20111;-82
2023/01/09 11:00:27;;;;;;;17.70;2.92;;;7.00;99.90;;;;;;5064706;28;20119;-82
2023/01/09 11:02:53;;;;;;;16.02;3.50;;;7.00;99.90;;;;;;5067741;28;20063;-83
2023/01/09 11:05:22;;;;;;;7.15;1.80;;;7.20;99.90;;;;;;5066558;28;20408;-82
2023/01/09 11:08:10;;;;;;;5.45;2.05;;;7.20;99.90;;;;;;5067304;28;20060;-84
2023/01/09 11:10:57;;;;;;;4.78;2.22;;;7.30;99.90;;;;;;5062015;28;20047;-84
2023/01/09 11:13:28;;;;;;;6.18;1.83;;;7.30;99.90;;;;;;5075908;28;20039;-82
2023/01/09 11:16:05;;;;;;;6.93;2.40;;;7.30;99.90;;;;;;5075220;28;20033;-83
2023/01/09 11:18:33;;;;;;;3.15;1.88;;;7.30;99.90;;;;;;5071921;28;20047;-82
2023/01/09 11:21:26;;;;;;;4.25;2.08;;;7.30;99.90;;;;;;5070983;28;20028;-84
2023/01/09 11:23:52;;;;;;;5.10;2.58;;;7.30;99.90;;;;;;5063889;28;20111;-83
2023/01/09 11:26:27;;;;;;;1.95;1.15;;;7.40;99.90;;;;;;5068994;28;20024;-81
2023/01/09 11:29:11;;;;;;;2.80;1.60;;;7.30;99.90;;;;;;5065532;28;20557;-82
2023/01/09 11:31:37;;;;;;;6.72;1.73;;;7.30;99.90;;;;;;5058988;28;20476;-81
2023/01/09 11:34:03;;;;;;;4.25;2.38;;;7.30;99.90;;;;;;5068482;28;20028;-82
2023/01/09 11:36:29;;;;;;;9.98;3.13;;;7.30;99.90;;;;;;5064598;28;20033;-82
2023/01/09 11:38:58;;;;;;;3.35;1.52;;;7.30;99.90;;;;;;5064213;28;20025;-82
2023/01/09 11:41:28;;;;;;;3.22;1.38;;;7.30;99.90;;;;;;5064091;28;20062;-82
2023/01/09 11:43:57;;;;;;;7.85;1.60;;;7.30;99.90;;;;;;5079633;28;20033;-82
2023/01/09 11:46:33;;;;;;;5.13;1.67;;;7.40;99.90;;;;;;5067349;28;20028;-83
2023/01/09 11:49:01;;;;;;;5.22;1.58;;;7.40;99.90;;;;;;5066776;28;20076;-84
2023/01/09 11:51:33;;;;;;;6.55;1.55;;;7.40;99.90;;;;;;5067517;28;20032;-82
2023/01/09 11:54:10;;;;;;;6.18;1.55;;;7.40;99.90;;;;;;5066679;28;20082;-82
2023/01/09 11:56:37;;;;;;;6.70;1.33;;;7.40;99.90;;;;;;5066539;28;20085;-83
2023/01/09 11:59:09;;;;;;;6.68;1.42;;;7.30;99.90;;;;;;5067613;28;20025;-82
2023/01/09 12:01:47;;;;;;;2.55;1.30;;;7.30;99.90;;;;;;5069648;28;20023;-82
2023/01/09 12:04:18;;;;;;;8.23;3.17;;;7.30;99.90;;;;;;5068639;28;20435;-82
2023/01/09 12:07:21;;;;;;;4.03;1.23;;;7.20;99.90;;;;;;5067142;28;20036;-82
2023/01/09 12:09:47;;;;;;;5.35;1.80;;;7.30;99.90;;;;;;5063709;28;20044;-82
2023/01/09 12:12:21;;;;;;;4.05;1.08;;;7.30;99.90;;;;;;5067038;28;20031;-83
2023/01/09 12:15:17;;;;;;;2.13;1.00;;;7.40;99.90;;;;;;5066479;28;20124;-83
2023/01/09 12:17:50;;;;;;;5.20;1.13;;;7.40;99.90;;;;;;5068463;28;20020;-84
2023/01/09 12:20:45;;;;;;;9.35;1.27;;;7.40;99.90;;;;;;5070242;28;20056;-83
2023/01/09 12:23:19;;;;;;;1.00;1.00;;;7.60;99.90;;;;;;5068750;28;20078;-82
2023/01/09 12:26:13;;;;;;;2.03;1.10;;;7.50;99.90;;;;;;5067680;28;20029;-82
2023/01/09 12:29:18;;;;;;;3.85;1.27;;;7.60;99.90;;;;;;5072931;28;20547;-81
2023/01/09 12:32:27;;;;;;;2.33;1.08;;;7.60;99.90;;;;;;5077680;28;20392;-83
2023/01/09 12:35:10;;;;;;;3.78;0.90;;;7.70;99.90;;;;;;5042483;28;20540;-82
2023/01/09 12:38:20;;;;;;;2.92;0.98;;;7.70;99.90;;;;;;5066555;28;20062;-83
2023/01/09 12:41:04;;;;;;;0.85;0.80;;;7.70;99.90;;;;;;5049178;28;20048;-84
2023/01/09 12:43:33;;;;;;;3.15;0.95;;;7.60;99.90;;;;;;5075331;28;20119;-82
2023/01/09 12:46:25;;;;;;;2.03;1.02;;;7.70;99.90;;;;;;5070173;28;20312;-82
2023/01/09 12:49:12;;;;;;;1.40;0.80;;;7.70;99.90;;;;;;5070783;28;20048;-82
2023/01/09 12:51:47;;;;;;;2.50;0.85;;;7.70;99.90;;;;;;5071121;28;20052;-84
2023/01/09 12:54:26;;;;;;;1.67;0.95;;;7.70;99.90;;;;;;5071778;28;20028;-83
2023/01/09 12:56:59;;;;;;;4.50;1.00;;;7.80;99.90;;;;;;5076607;28;20028;-82
2023/01/09 12:59:43;;;;;;;0.88;0.75;;;7.80;99.90;;;;;;5069989;28;20031;-82
2023/01/09 13:02:17;;;;;;;3.50;1.17;;;7.70;99.90;;;;;;5065647;28;20025;-82
2023/01/09 13:05:15;;;;;;;4.00;2.40;;;7.80;99.90;;;;;;5068180;28;20099;-84
2023/01/09 13:07:46;;;;;;;1.17;1.00;;;7.80;99.90;;;;;;5045935;28;20037;-82
2023/01/09 13:10:25;;;;;;;1.27;0.90;;;7.80;99.90;;;;;;5068279;28;20045;-83
2023/01/09 13:12:53;;;;;;;2.30;1.02;;;7.80;99.90;;;;;;5070393;28;20043;-84
2023/01/09 13:15:27;;;;;;;3.33;1.20;;;7.80;99.90;;;;;;5071701;28;20423;-84
2023/01/09 13:17:58;;;;;;;2.03;0.90;;;7.90;99.90;;;;;;5070836;28;20037;-84
2023/01/09 13:20:50;;;;;;;1.08;0.90;;;7.90;99.90;;;;;;5069359;28;20393;-82
2023/01/09 13:23:38;;;;;;;2.30;0.90;;;7.90;99.90;;;;;;5066994;28;20530;-83
2023/01/09 13:26:08;;;;;;;5.38;1.25;;;7.90;99.90;;;;;;5066373;28;20074;-84